Time;durP1;ratioP1;P1;durP2;ratioP2;P2;SDS_P1;SDS_P2;PMS_P1;PMS_P2;Temp;Humidity;BMP_temperature;BMP_pressure;BME280_temperature;BME280_humidity;BME280_pressure;Samples;Min_cycle;Max_cycle;Signal;HPM_P1;HPM_P2
2023/10/26 04:30:18;;;;;;;0.20;0.20;;;13.40;87.80;;;;;;5993888;23;20082;-74
2023/10/26 04:32:44;;;;;;;0.10;0.10;;;13.30;87.70;;;;;;4984050;28;20081;-75
2023/10/26 04:35:10;;;;;;;0.10;0.10;;;13.30;87.80;;;;;;5000500;28;20117;-74
2023/10/26 04:37:35;;;;;;;0.10;0.10;;;13.30;87.80;;;;;;4999588;28;20029;-74
2023/10/26 04:40:01;;;;;;;0.20;0.20;;;13.30;87.70;;;;;;5010916;28;20026;-74
2023/10/26 04:42:27;;;;;;;0.17;0.17;;;13.30;88.00;;;;;;4987404;28;20058;-74
2023/10/26 04:44:52;;;;;;;0.10;0.10;;;13.30;87.90;;;;;;4980716;28;20116;-74
2023/10/26 04:47:18;;;;;;;0.10;0.10;;;13.30;88.00;;;;;;4980711;28;20410;-75
2023/10/26 04:49:43;;;;;;;0.10;0.10;;;13.30;87.90;;;;;;4992706;28;20023;-75
2023/10/26 04:52:14;;;;;;;0.10;0.10;;;13.40;87.90;;;;;;4998752;28;20032;-74
2023/10/26 04:54:39;;;;;;;0.10;0.10;;;13.30;88.00;;;;;;4978523;28;20043;-73
2023/10/26 04:57:05;;;;;;;0.20;0.20;;;13.40;88.10;;;;;;4980273;28;20039;-74
2023/10/26 04:59:30;;;;;;;0.10;0.10;;;13.40;88.10;;;;;;4981263;28;20022;-74
2023/10/26 05:01:56;;;;;;;0.10;0.10;;;13.40;88.10;;;;;;4998381;28;20180;-76
2023/10/26 05:04:22;;;;;;;0.10;0.10;;;13.50;88.10;;;;;;4996794;28;20018;-78
2023/10/26 05:06:47;;;;;;;0.15;0.15;;;13.50;88.10;;;;;;4993815;28;20026;-78
2023/10/26 05:09:13;;;;;;;0.10;0.10;;;13.50;87.80;;;;;;4999735;28;20027;-77
2023/10/26 05:11:39;;;;;;;0.10;0.10;;;13.50;88.00;;;;;;4997495;28;20022;-77
2023/10/26 05:14:06;;;;;;;0.10;0.10;;;13.50;87.70;;;;;;4979939;28;20035;-77
2023/10/26 05:16:32;;;;;;;0.10;0.10;;;13.50;87.90;;;;;;4979803;28;20109;-76
2023/10/26 05:18:57;;;;;;;0.10;0.10;;;13.50;87.70;;;;;;4979987;28;20026;-77
2023/10/26 05:21:23;;;;;;;0.10;0.10;;;13.40;87.90;;;;;;4980028;28;20117;-78
2023/10/26 05:23:48;;;;;;;0.10;0.10;;;13.40;87.90;;;;;;4980483;28;20073;-76
2023/10/26 05:26:14;;;;;;;0.10;0.10;;;13.40;87.80;;;;;;4982011;28;20037;-75
2023/10/26 05:28:40;;;;;;;0.10;0.10;;;13.40;88.00;;;;;;4980247;28;20070;-75
2023/10/26 05:31:05;;;;;;;0.10;0.10;;;13.40;87.70;;;;;;4979733;28;20058;-76
2023/10/26 05:33:31;;;;;;;0.10;0.10;;;13.40;88.00;;;;;;4971483;28;20033;-76
2023/10/26 05:35:57;;;;;;;0.10;0.10;;;13.40;87.90;;;;;;4998682;28;20034;-76
2023/10/26 05:38:23;;;;;;;0.10;0.10;;;13.30;87.70;;;;;;4998376;28;20027;-76
2023/10/26 05:40:55;;;;;;;0.10;0.10;;;13.30;87.90;;;;;;4998899;28;20077;-76
2023/10/26 05:43:21;;;;;;;0.10;0.10;;;13.30;87.80;;;;;;4996875;28;20053;-78
2023/10/26 05:45:47;;;;;;;0.10;0.10;;;13.30;88.00;;;;;;4984653;28;20034;-77
2023/10/26 05:48:13;;;;;;;0.20;0.20;;;13.30;87.80;;;;;;4978465;28;20027;-76
2023/10/26 05:50:43;;;;;;;0.10;0.10;;;13.30;87.90;;;;;;4993412;28;20501;-76
2023/10/26 05:53:09;;;;;;;0.17;0.17;;;13.30;88.00;;;;;;4991577;28;20033;-76
2023/10/26 05:55:35;;;;;;;0.10;0.10;;;13.30;88.10;;;;;;4998116;28;20489;-76
2023/10/26 05:58:01;;;;;;;0.10;0.10;;;13.30;88.00;;;;;;4998795;28;20109;-76
2023/10/26 06:00:27;;;;;;;0.10;0.10;;;13.30;88.10;;;;;;4998991;28;20034;-76
2023/10/26 06:02:53;;;;;;;0.15;0.15;;;13.30;88.00;;;;;;4992220;28;20027;-76
2023/10/26 06:05:18;;;;;;;0.20;0.20;;;13.30;88.10;;;;;;4998528;28;20061;-76
2023/10/26 06:07:44;;;;;;;0.10;0.10;;;13.30;88.10;;;;;;4993097;28;20030;-76
2023/10/26 06:10:11;;;;;;;0.10;0.10;;;13.30;87.90;;;;;;4979230;28;20096;-76
2023/10/26 06:12:37;;;;;;;0.20;0.20;;;13.30;88.10;;;;;;4979266;28;20393;-76
2023/10/26 06:15:03;;;;;;;0.15;0.10;;;13.30;88.10;;;;;;4961728;28;20023;-77
2023/10/26 06:17:29;;;;;;;0.10;0.10;;;13.30;88.20;;;;;;4961917;28;20037;-76
2023/10/26 06:19:54;;;;;;;0.10;0.10;;;13.30;88.10;;;;;;4979047;28;20030;-76
2023/10/26 06:22:20;;;;;;;0.10;0.10;;;13.30;88.20;;;;;;4961599;28;20511;-76
2023/10/26 06:24:46;;;;;;;0.20;0.10;;;13.20;88.10;;;;;;4978414;28;20106;-76
2023/10/26 06:27:12;;;;;;;0.10;0.10;;;13.30;88.10;;;;;;4978964;28;20029;-76
2023/10/26 06:29:37;;;;;;;0.10;0.10;;;13.40;88.20;;;;;;4979060;28;20401;-76
2023/10/26 06:32:03;;;;;;;0.15;0.15;;;13.30;87.90;;;;;;4978784;28;20046;-76
2023/10/26 06:34:29;;;;;;;0.10;0.10;;;13.30;88.10;;;;;;4995560;28;20030;-76
2023/10/26 06:36:55;;;;;;;0.10;0.10;;;13.30;88.10;;;;;;4997086;28;20173;-76
2023/10/26 06:39:21;;;;;;;0.10;0.10;;;13.30;88.20;;;;;;5004150;28;20061;-76
2023/10/26 06:41:47;;;;;;;0.20;0.20;;;13.30;88.30;;;;;;4999200;28;20025;-76
2023/10/26 06:44:13;;;;;;;0.10;0.10;;;13.40;88.20;;;;;;4998042;28;20029;-76
2023/10/26 06:46:38;;;;;;;0.13;0.13;;;13.40;88.10;;;;;;4983880;28;20117;-76
2023/10/26 06:49:04;;;;;;;0.20;0.20;;;13.40;88.10;;;;;;4978821;28;20475;-76
2023/10/26 06:51:30;;;;;;;0.13;0.13;;;13.40;88.00;;;;;;4990973;28;20085;-76
2023/10/26 06:53:55;;;;;;;0.20;0.20;;;13.40;87.90;;;;;;4997793;28;20437;-76
2023/10/26 06:56:21;;;;;;;0.10;0.10;;;13.30;88.00;;;;;;4984178;28;20486;-76
2023/10/26 06:58:47;;;;;;;0.10;0.10;;;13.30;88.10;;;;;;4992549;28;20030;-76
2023/10/26 07:01:14;;;;;;;0.13;0.13;;;13.30;88.20;;;;;;4989244;28;20042;-76
2023/10/26 07:03:40;;;;;;;0.10;0.10;;;13.30;88.20;;;;;;4989684;28;20081;-79
2023/10/26 07:06:06;;;;;;;0.10;0.10;;;13.30;88.30;;;;;;4990788;28;20034;-77
2023/10/26 07:08:36;;;;;;;0.10;0.10;;;13.30;88.10;;;;;;4988555;28;20101;-76
2023/10/26 07:11:07;;;;;;;0.20;0.20;;;13.30;88.20;;;;;;4996407;28;20034;-77
2023/10/26 07:13:34;;;;;;;0.20;0.20;;;13.40;88.20;;;;;;4996003;28;20454;-76
2023/10/26 07:16:00;;;;;;;0.13;0.10;;;13.40;88.20;;;;;;4979507;28;20049;-77
2023/10/26 07:18:26;;;;;;;0.10;0.10;;;13.40;88.20;;;;;;4994692;28;20136;-76
2023/10/26 07:20:53;;;;;;;0.10;0.10;;;13.40;88.10;;;;;;4996941;28;20030;-75
2023/10/26 07:23:18;;;;;;;0.15;0.15;;;13.40;88.20;;;;;;4996864;28;20041;-77
2023/10/26 07:25:44;;;;;;;0.10;0.10;;;13.40;88.20;;;;;;4978521;28;20022;-76
2023/10/26 07:28:11;;;;;;;0.10;0.10;;;13.40;88.20;;;;;;4979175;28;20081;-77
2023/10/26 07:30:43;;;;;;;0.13;0.10;;;13.40;88.30;;;;;;4996894;28;20041;-78
2023/10/26 07:33:09;;;;;;;0.20;0.20;;;13.50;88.30;;;;;;5001784;28;20362;-77
2023/10/26 07:35:40;;;;;;;0.20;0.20;;;13.50;88.10;;;;;;5004803;28;20030;-77
2023/10/26 07:38:09;;;;;;;0.10;0.10;;;13.50;88.10;;;;;;5003067;28;20034;-77
2023/10/26 07:40:37;;;;;;;0.10;0.10;;;13.50;88.20;;;;;;5008160;28;20041;-77
2023/10/26 07:43:03;;;;;;;0.10;0.10;;;13.60;88.30;;;;;;5002564;28;20026;-77
2023/10/26 07:45:28;;;;;;;0.10;0.10;;;13.60;88.20;;;;;;5006116;28;20577;-78
2023/10/26 07:47:56;;;;;;;0.10;0.10;;;13.60;88.30;;;;;;5002470;28;20029;-76
2023/10/26 07:50:22;;;;;;;0.10;0.10;;;13.60;88.20;;;;;;4992150;28;20030;-78
2023/10/26 07:52:48;;;;;;;0.10;0.10;;;13.70;88.20;;;;;;4990543;28;20492;-76
2023/10/26 07:55:14;;;;;;;0.10;0.10;;;13.70;88.30;;;;;;4983714;28;20110;-76
2023/10/26 07:57:41;;;;;;;0.10;0.10;;;13.70;88.30;;;;;;4990738;28;20030;-77
2023/10/26 08:00:08;;;;;;;0.10;0.10;;;13.70;88.40;;;;;;4957318;28;20114;-76
2023/10/26 08:02:34;;;;;;;0.10;0.10;;;13.80;88.30;;;;;;4998442;28;20096;-76
2023/10/26 08:04:59;;;;;;;0.10;0.10;;;13.80;88.30;;;;;;4995986;28;20034;-78
2023/10/26 08:07:25;;;;;;;0.10;0.10;;;13.80;88.20;;;;;;4979624;28;20029;-77
2023/10/26 08:09:51;;;;;;;0.10;0.10;;;13.90;88.20;;;;;;4992545;28;20042;-78
2023/10/26 08:12:17;;;;;;;0.10;0.10;;;14.00;88.10;;;;;;4996799;28;20022;-76
2023/10/26 08:14:43;;;;;;;0.20;0.20;;;13.90;88.00;;;;;;4964378;28;20121;-75
2023/10/26 08:17:09;;;;;;;0.10;0.10;;;14.00;88.10;;;;;;4987035;28;20061;-75
2023/10/26 08:19:34;;;;;;;0.10;0.10;;;14.00;88.20;;;;;;4982443;28;20042;-75
2023/10/26 08:22:00;;;;;;;0.10;0.10;;;14.00;88.10;;;;;;4992464;28;20149;-75
2023/10/26 08:24:27;;;;;;;0.10;0.10;;;14.10;88.00;;;;;;4985635;28;20491;-75
2023/10/26 08:26:53;;;;;;;0.20;0.20;;;14.10;88.00;;;;;;4988052;28;20018;-75
2023/10/26 08:29:19;;;;;;;0.10;0.10;;;14.20;88.10;;;;;;4985463;28;20481;-75
2023/10/26 08:31:45;;;;;;;0.10;0.10;;;14.20;88.00;;;;;;4987299;28;20077;-75
2023/10/26 08:34:11;;;;;;;0.10;0.10;;;14.20;88.00;;;;;;5001737;28;20031;-75
2023/10/26 08:36:36;;;;;;;0.10;0.10;;;14.30;87.90;;;;;;5005144;28;20795;-75
2023/10/26 08:39:02;;;;;;;0.10;0.10;;;14.40;87.80;;;;;;5002712;28;20045;-75
2023/10/26 08:41:35;;;;;;;0.10;0.10;;;14.40;87.90;;;;;;4986384;28;20563;-75
2023/10/26 08:44:02;;;;;;;0.10;0.10;;;14.50;87.80;;;;;;5003200;28;20026;-75
2023/10/26 08:46:29;;;;;;;0.10;0.10;;;14.50;87.50;;;;;;5004600;28;20641;-75
2023/10/26 08:48:55;;;;;;;0.10;0.10;;;14.60;87.60;;;;;;5006971;28;20017;-75
2023/10/26 08:51:21;;;;;;;0.10;0.10;;;14.60;87.70;;;;;;5005216;28;20393;-75
2023/10/26 08:53:47;;;;;;;0.10;0.10;;;14.70;87.60;;;;;;5006652;28;20021;-75
2023/10/26 08:56:17;;;;;;;0.10;0.10;;;14.70;87.40;;;;;;4988977;28;20060;-75
2023/10/26 08:58:43;;;;;;;0.10;0.10;;;14.80;87.30;;;;;;5005356;28;20018;-75
2023/10/26 09:01:09;;;;;;;0.10;0.10;;;14.80;87.20;;;;;;5007913;28;20067;-75
2023/10/26 09:03:35;;;;;;;0.15;0.15;;;14.90;87.30;;;;;;5000886;28;20041;-75
2023/10/26 09:06:00;;;;;;;0.10;0.10;;;14.80;87.20;;;;;;4980895;28;20018;-75
2023/10/26 09:08:28;;;;;;;0.10;0.10;;;14.90;87.40;;;;;;4982013;28;20456;-75
2023/10/26 09:10:54;;;;;;;0.10;0.10;;;14.90;87.20;;;;;;4982262;28;20026;-76
2023/10/26 09:13:29;;;;;;;0.10;0.10;;;14.90;87.50;;;;;;4999573;28;20559;-75
2023/10/26 09:15:57;;;;;;;0.10;0.10;;;15.00;87.50;;;;;;4998926;28;20031;-76
2023/10/26 09:18:24;;;;;;;0.10;0.10;;;15.00;87.50;;;;;;4992651;28;20038;-76
2023/10/26 09:21:10;;;;;;;0.10;0.10;;;15.00;87.50;;;;;;4980178;28;20030;-75
2023/10/26 09:23:40;;;;;;;0.10;0.10;;;15.10;87.40;;;;;;4981473;28;20038;-76
2023/10/26 09:26:07;;;;;;;0.10;0.10;;;15.20;87.20;;;;;;4981601;28;20058;-76
2023/10/26 09:29:06;;;;;;;0.10;0.10;;;15.20;87.20;;;;;;4999369;28;20022;-76
2023/10/26 09:31:31;;;;;;;0.10;0.10;;;15.20;87.20;;;;;;4961513;28;20047;-76
2023/10/26 09:34:10;;;;;;;0.20;0.20;;;15.20;87.20;;;;;;4979892;28;20043;-76
2023/10/26 09:36:35;;;;;;;0.10;0.10;;;15.20;87.20;;;;;;4985474;28;20027;-76
2023/10/26 09:39:07;;;;;;;0.10;0.10;;;15.20;87.40;;;;;;5001017;28;20034;-76
2023/10/26 09:41:33;;;;;;;0.10;0.10;;;15.30;87.30;;;;;;4978842;28;20494;-76
2023/10/26 09:43:59;;;;;;;0.10;0.10;;;15.30;87.00;;;;;;4980494;28;20378;-75
2023/10/26 09:46:25;;;;;;;0.10;0.10;;;15.30;87.20;;;;;;4972637;28;20031;-76
2023/10/26 09:48:52;;;;;;;0.10;0.10;;;15.30;87.00;;;;;;4993928;28;20379;-77
2023/10/26 09:51:20;;;;;;;0.10;0.10;;;15.40;87.10;;;;;;4996583;28;20101;-75
2023/10/26 09:53:47;;;;;;;0.10;0.10;;;15.50;87.00;;;;;;4999346;28;20548;-75
2023/10/26 09:56:22;;;;;;;0.10;0.10;;;15.50;86.80;;;;;;4997562;28;20086;-78
2023/10/26 09:58:48;;;;;;;0.10;0.10;;;15.50;86.90;;;;;;4995408;28;20057;-76
2023/10/26 10:01:51;;;;;;;0.10;0.10;;;15.50;86.90;;;;;;4991906;28;20034;-77
2023/10/26 10:04:37;;;;;;;0.10;0.10;;;15.50;87.00;;;;;;4996925;28;20022;-77
2023/10/26 10:07:04;;;;;;;0.20;0.20;;;15.60;87.10;;;;;;4991872;28;20662;-76
2023/10/26 10:09:30;;;;;;;0.10;0.10;;;15.60;87.00;;;;;;4997601;28;20029;-76
2023/10/26 10:12:09;;;;;;;0.10;0.10;;;15.70;86.80;;;;;;4974966;28;20100;-76
2023/10/26 10:14:51;;;;;;;0.17;0.15;;;15.70;87.00;;;;;;4985121;28;20035;-76
2023/10/26 10:17:19;;;;;;;0.20;0.20;;;15.80;87.00;;;;;;4985324;28;20755;-75
2023/10/26 10:20:14;;;;;;;0.20;0.15;;;15.80;87.00;;;;;;4979395;28;20041;-74
2023/10/26 10:22:40;;;;;;;0.20;0.20;;;15.80;87.00;;;;;;4994830;28;20092;-74
2023/10/26 10:25:10;;;;;;;0.10;0.10;;;15.80;87.10;;;;;;4994590;28;20034;-75
2023/10/26 10:27:40;;;;;;;0.10;0.10;;;15.80;87.20;;;;;;4996492;28;20027;-75
2023/10/26 10:30:09;;;;;;;0.10;0.10;;;15.80;87.30;;;;;;4997127;28;20122;-75
2023/10/26 10:32:44;;;;;;;0.10;0.10;;;15.80;87.20;;;;;;4984304;28;20046;-75
2023/10/26 10:35:11;;;;;;;0.10;0.10;;;15.90;87.30;;;;;;5004073;28;20084;-75
2023/10/26 10:37:37;;;;;;;0.05;0.05;;;15.80;87.00;;;;;;5002178;28;20030;-75
2023/10/26 10:40:14;;;;;;;0.15;0.15;;;15.80;86.90;;;;;;5005621;28;20572;-75
2023/10/26 10:42:50;;;;;;;0.10;0.10;;;15.70;87.30;;;;;;5005558;28;20029;-76
2023/10/26 10:45:19;;;;;;;0.10;0.10;;;15.70;87.50;;;;;;4997938;28;20030;-74
2023/10/26 10:47:49;;;;;;;0.10;0.10;;;15.60;87.70;;;;;;4997165;28;20026;-75
2023/10/26 10:50:22;;;;;;;0.10;0.10;;;15.70;87.80;;;;;;4977475;28;20410;-75
2023/10/26 10:52:50;;;;;;;0.10;0.10;;;15.60;87.90;;;;;;4997376;28;20432;-75
2023/10/26 10:55:30;;;;;;;0.10;0.10;;;15.70;87.90;;;;;;4997188;28;20030;-74
2023/10/26 10:57:58;;;;;;;0.10;0.10;;;15.60;87.90;;;;;;4995073;28;20050;-77
2023/10/26 11:00:40;;;;;;;0.10;0.10;;;15.60;88.00;;;;;;4978990;28;20493;-76
2023/10/26 11:03:05;;;;;;;0.10;0.10;;;15.70;88.10;;;;;;4995951;28;20026;-75
2023/10/26 11:05:35;;;;;;;0.10;0.10;;;15.70;88.10;;;;;;4978258;28;20052;-74
2023/10/26 11:08:00;;;;;;;0.10;0.10;;;15.70;88.20;;;;;;4994553;28;20021;-79
2023/10/26 11:10:26;;;;;;;0.10;0.10;;;15.70;88.20;;;;;;4995250;28;20502;-76
2023/10/26 11:12:52;;;;;;;0.10;0.10;;;15.80;88.30;;;;;;4988589;28;20066;-76
2023/10/26 11:15:18;;;;;;;0.10;0.10;;;15.80;88.20;;;;;;4978010;28;20069;-75
2023/10/26 11:17:43;;;;;;;0.10;0.10;;;15.90;88.10;;;;;;4978074;28;20098;-81
2023/10/26 11:20:41;;;;;;;0.10;0.10;;;15.90;88.10;;;;;;4985374;28;20089;-89
2023/10/26 11:23:11;;;;;;;0.10;0.10;;;15.90;88.10;;;;;;4979241;28;20015;-87
2023/10/26 11:25:37;;;;;;;0.10;0.10;;;16.00;88.10;;;;;;4995658;28;20034;-82
2023/10/26 11:28:04;;;;;;;0.10;0.10;;;16.00;88.10;;;;;;4997102;28;20077;-88
2023/10/26 11:30:30;;;;;;;0.10;0.10;;;16.00;88.00;;;;;;4993867;28;20053;-84
2023/10/26 11:32:56;;;;;;;0.10;0.10;;;16.00;88.00;;;;;;4994798;28;20022;-87
2023/10/26 11:35:23;;;;;;;0.10;0.10;;;16.00;88.00;;;;;;4994265;28;20034;-83
2023/10/26 11:37:55;;;;;;;0.10;0.10;;;16.10;88.00;;;;;;4996806;28;20033;-84
2023/10/26 11:40:30;;;;;;;0.10;0.10;;;16.20;88.00;;;;;;4996305;28;20068;-82
2023/10/26 11:43:00;;;;;;;0.10;0.10;;;16.30;88.00;;;;;;4976573;28;20014;-85
2023/10/26 11:45:27;;;;;;;0.10;0.10;;;16.30;87.90;;;;;;4978295;28;20367;-79
2023/10/26 11:47:55;;;;;;;0.10;0.10;;;16.30;87.70;;;;;;4996142;28;20490;-86
2023/10/26 11:50:26;;;;;;;0.13;0.13;;;16.40;87.60;;;;;;4978613;28;20100;-86
2023/10/26 11:52:53;;;;;;;0.10;0.10;;;16.40;87.40;;;;;;4977315;28;20053;-87
2023/10/26 11:55:21;;;;;;;0.10;0.10;;;16.50;87.40;;;;;;4995875;28;20052;-87
2023/10/26 11:57:47;;;;;;;0.10;0.10;;;16.30;87.10;;;;;;4979266;28;20409;-89
2023/10/26 12:00:14;;;;;;;0.10;0.10;;;16.30;86.90;;;;;;4979427;28;20452;-87
2023/10/26 12:02:40;;;;;;;0.10;0.10;;;16.30;87.10;;;;;;4978770;28;20080;-81
2023/10/26 12:05:06;;;;;;;0.10;0.10;;;16.20;87.30;;;;;;4978268;28;20113;-83
2023/10/26 12:07:32;;;;;;;0.10;0.10;;;16.10;87.10;;;;;;4995680;28;20556;-83
2023/10/26 12:09:58;;;;;;;0.10;0.10;;;16.10;87.30;;;;;;4996328;28;20034;-84
2023/10/26 12:12:25;;;;;;;0.10;0.10;;;16.00;87.20;;;;;;4979190;28;20879;-86
2023/10/26 12:14:51;;;;;;;0.10;0.10;;;16.00;87.30;;;;;;4978673;28;20034;-84
2023/10/26 12:17:16;;;;;;;0.10;0.10;;;15.90;87.20;;;;;;4995826;28;20030;-84
2023/10/26 12:19:42;;;;;;;0.10;0.10;;;15.90;87.30;;;;;;4995948;28;20084;-84
2023/10/26 12:22:07;;;;;;;0.10;0.10;;;15.90;87.30;;;;;;4998897;28;20076;-84
2023/10/26 12:24:34;;;;;;;0.10;0.10;;;15.90;87.20;;;;;;4975688;28;20057;-83
2023/10/26 12:27:00;;;;;;;0.10;0.10;;;15.90;87.40;;;;;;5015004;28;20480;-84
2023/10/26 12:29:26;;;;;;;0.00;0.00;;;15.80;87.70;;;;;;5020097;28;20499;-83
2023/10/26 12:31:52;;;;;;;0.20;0.20;;;15.80;87.70;;;;;;5013259;28;20038;-83
2023/10/26 12:34:19;;;;;;;0.10;0.10;;;15.80;88.10;;;;;;4981260;28;20403;-83
2023/10/26 12:36:45;;;;;;;0.10;0.10;;;15.80;88.20;;;;;;4996020;28;20318;-83
2023/10/26 12:39:11;;;;;;;0.10;0.10;;;15.70;88.30;;;;;;4984745;28;20023;-78
2023/10/26 12:41:37;;;;;;;0.10;0.10;;;15.80;88.60;;;;;;4997140;28;20030;-83
2023/10/26 12:44:03;;;;;;;0.10;0.10;;;15.80;88.50;;;;;;4970431;28;20125;-83
2023/10/26 12:46:28;;;;;;;0.10;0.10;;;15.80;88.40;;;;;;4980517;28;20036;-82
2023/10/26 12:48:55;;;;;;;0.10;0.10;;;15.60;89.20;;;;;;4986902;28;20090;-86
2023/10/26 12:51:21;;;;;;;0.10;0.10;;;15.40;91.10;;;;;;4997800;28;20022;-84
2023/10/26 12:53:46;;;;;;;0.00;0.00;;;15.30;91.50;;;;;;4996310;28;20041;-85
2023/10/26 12:56:12;;;;;;;0.10;0.10;;;15.20;90.90;;;;;;4980892;28;20038;-84
2023/10/26 12:58:37;;;;;;;0.00;0.00;;;15.10;91.50;;;;;;4996046;28;20387;-84
2023/10/26 13:01:03;;;;;;;0.10;0.10;;;15.00;91.10;;;;;;4995505;28;21054;-77
2023/10/26 13:03:29;;;;;;;0.10;0.10;;;15.00;91.70;;;;;;4980036;28;20031;-77
2023/10/26 13:05:55;;;;;;;0.10;0.10;;;15.20;91.60;;;;;;4992619;28;20402;-76
2023/10/26 13:08:20;;;;;;;0.10;0.10;;;15.30;91.30;;;;;;4980000;28;20034;-77
2023/10/26 13:10:46;;;;;;;0.10;0.10;;;15.40;91.40;;;;;;4979871;28;20078;-76
2023/10/26 13:13:12;;;;;;;0.10;0.10;;;15.60;91.10;;;;;;4974576;28;20082;-78
2023/10/26 13:15:39;;;;;;;0.10;0.10;;;15.70;90.70;;;;;;4982731;28;20037;-77
2023/10/26 13:18:05;;;;;;;0.10;0.10;;;15.80;90.50;;;;;;4979609;28;20035;-78
2023/10/26 13:20:31;;;;;;;0.08;0.08;;;15.80;90.30;;;;;;4968660;28;20030;-78
2023/10/26 13:22:57;;;;;;;0.10;0.10;;;15.90;90.20;;;;;;4977178;28;20027;-78
2023/10/26 13:25:23;;;;;;;0.10;0.10;;;15.90;90.00;;;;;;4979626;28;20026;-78
2023/10/26 13:27:50;;;;;;;0.10;0.10;;;16.00;89.80;;;;;;4979191;28;20478;-78
2023/10/26 13:30:16;;;;;;;0.10;0.10;;;16.00;89.90;;;;;;4978769;28;20027;-78
2023/10/26 13:32:42;;;;;;;0.10;0.10;;;16.00;89.90;;;;;;4978475;28;20038;-78
2023/10/26 13:35:09;;;;;;;0.10;0.10;;;16.10;89.70;;;;;;4981909;28;20037;-78
2023/10/26 13:37:34;;;;;;;0.10;0.10;;;16.10;89.50;;;;;;4977955;28;20121;-78
2023/10/26 13:40:00;;;;;;;0.10;0.10;;;16.10;89.10;;;;;;4983603;28;20528;-78
2023/10/26 13:42:26;;;;;;;0.10;0.10;;;16.20;89.30;;;;;;4995641;28;20027;-78
2023/10/26 13:44:53;;;;;;;0.10;0.10;;;16.20;89.10;;;;;;4995789;28;20030;-78
2023/10/26 13:47:18;;;;;;;0.10;0.10;;;16.20;89.10;;;;;;4996258;28;20042;-78
2023/10/26 13:49:44;;;;;;;0.10;0.10;;;16.20;88.90;;;;;;4995466;28;20437;-78
2023/10/26 13:52:10;;;;;;;0.10;0.10;;;16.10;88.40;;;;;;4991370;28;20474;-78
2023/10/26 13:54:36;;;;;;;0.10;0.10;;;16.00;88.70;;;;;;4993629;28;20026;-78
2023/10/26 13:57:02;;;;;;;0.10;0.10;;;16.00;88.80;;;;;;4997943;28;20029;-78
2023/10/26 13:59:30;;;;;;;0.10;0.10;;;16.00;88.70;;;;;;4994468;28;20379;-76
2023/10/26 14:01:56;;;;;;;0.10;0.10;;;16.00;88.60;;;;;;4990987;28;20065;-78
2023/10/26 14:04:22;;;;;;;0.10;0.10;;;16.00;88.50;;;;;;4996992;28;20026;-78
2023/10/26 14:06:48;;;;;;;0.10;0.10;;;16.00;88.50;;;;;;4994715;28;20061;-80
2023/10/26 14:09:14;;;;;;;0.13;0.13;;;16.10;88.50;;;;;;4972218;28;20070;-79
2023/10/26 14:11:40;;;;;;;0.03;0.03;;;16.10;88.70;;;;;;4988553;28;20034;-83
2023/10/26 14:14:06;;;;;;;0.10;0.10;;;16.10;88.60;;;;;;4993511;28;21129;-84
2023/10/26 14:16:31;;;;;;;0.10;0.10;;;16.10;88.60;;;;;;4997191;28;20037;-84
2023/10/26 14:19:03;;;;;;;0.10;0.10;;;16.10;88.60;;;;;;4998892;28;20043;-84
2023/10/26 14:21:29;;;;;;;0.10;0.10;;;16.10;88.50;;;;;;4999260;28;20019;-82
2023/10/26 14:23:55;;;;;;;0.10;0.10;;;16.00;88.40;;;;;;4998935;28;20485;-81
2023/10/26 14:26:20;;;;;;;0.10;0.10;;;16.00;88.50;;;;;;4994008;28;20022;-81
2023/10/26 14:28:46;;;;;;;0.10;0.10;;;16.00;88.40;;;;;;4998293;28;20057;-78
2023/10/26 14:31:16;;;;;;;0.10;0.10;;;16.00;88.50;;;;;;4995419;28;20046;-85
2023/10/26 14:33:42;;;;;;;0.10;0.10;;;15.90;88.50;;;;;;4977643;28;20034;-78
2023/10/26 14:36:09;;;;;;;0.10;0.10;;;15.90;88.80;;;;;;4996318;28;20485;-81
2023/10/26 14:38:34;;;;;;;0.10;0.10;;;15.90;88.70;;;;;;4977596;28;20084;-81
2023/10/26 14:41:01;;;;;;;0.00;0.00;;;15.80;88.70;;;;;;4995795;28;20026;-81
2023/10/26 14:43:28;;;;;;;0.10;0.10;;;15.80;88.70;;;;;;4996401;28;20537;-81
2023/10/26 14:45:53;;;;;;;0.10;0.10;;;15.80;88.80;;;;;;4995705;28;20131;-81
2023/10/26 14:48:20;;;;;;;0.00;0.00;;;15.80;88.70;;;;;;4996289;28;20026;-82
2023/10/26 14:50:46;;;;;;;0.10;0.10;;;15.80;88.50;;;;;;4980920;28;20039;-81
2023/10/26 14:53:12;;;;;;;0.10;0.10;;;15.80;88.70;;;;;;4979535;28;20053;-81
2023/10/26 14:55:39;;;;;;;0.10;0.10;;;15.80;88.80;;;;;;4980036;28;20405;-82
2023/10/26 14:58:08;;;;;;;0.10;0.10;;;15.80;88.80;;;;;;4996487;28;20058;-83
2023/10/26 15:00:38;;;;;;;0.10;0.10;;;15.80;88.60;;;;;;4997852;28;20413;-84
2023/10/26 15:03:04;;;;;;;0.10;0.10;;;15.80;88.40;;;;;;4987627;28;20038;-79
2023/10/26 15:05:34;;;;;;;0.10;0.10;;;15.80;88.40;;;;;;4963983;28;20026;-82
2023/10/26 15:07:59;;;;;;;0.10;0.10;;;15.80;88.30;;;;;;4983290;28;20019;-78
2023/10/26 15:10:25;;;;;;;0.10;0.10;;;15.80;88.20;;;;;;4991924;28;20030;-80
2023/10/26 15:12:51;;;;;;;0.10;0.10;;;15.80;88.40;;;;;;4987777;28;20030;-79
2023/10/26 15:15:17;;;;;;;0.10;0.10;;;15.80;88.30;;;;;;4992924;28;20038;-76
2023/10/26 15:17:44;;;;;;;0.10;0.10;;;15.80;88.40;;;;;;4996312;28;20026;-82
2023/10/26 15:20:10;;;;;;;0.10;0.10;;;15.80;88.40;;;;;;4989491;28;20113;-83
2023/10/26 15:22:36;;;;;;;0.10;0.10;;;15.80;88.10;;;;;;4981361;28;20499;-79
2023/10/26 15:25:02;;;;;;;0.10;0.10;;;15.80;88.40;;;;;;4994683;28;20466;-81
2023/10/26 15:27:28;;;;;;;0.10;0.10;;;15.80;88.40;;;;;;4988933;28;20026;-81
2023/10/26 15:29:53;;;;;;;0.10;0.10;;;15.80;88.40;;;;;;4978882;28;20030;-79
2023/10/26 15:32:19;;;;;;;0.10;0.10;;;15.80;88.00;;;;;;4993251;28;20042;-80
2023/10/26 15:34:46;;;;;;;0.13;0.13;;;15.80;87.90;;;;;;4989161;28;20088;-78
2023/10/26 15:37:12;;;;;;;0.10;0.10;;;15.80;88.00;;;;;;4982543;28;20022;-82
2023/10/26 15:39:42;;;;;;;0.10;0.10;;;15.70;87.80;;;;;;4984855;28;20041;-81
2023/10/26 15:42:08;;;;;;;0.10;0.10;;;15.80;88.20;;;;;;4979778;28;20042;-86
2023/10/26 15:44:34;;;;;;;0.10;0.10;;;15.70;88.10;;;;;;4994998;28;20030;-80
2023/10/26 15:47:00;;;;;;;0.10;0.10;;;15.70;87.90;;;;;;4986366;28;20014;-81
2023/10/26 15:49:27;;;;;;;0.10;0.10;;;15.70;88.10;;;;;;4996873;28;20108;-81
2023/10/26 15:51:53;;;;;;;0.10;0.10;;;15.60;88.10;;;;;;4986929;28;20033;-81
2023/10/26 15:54:19;;;;;;;0.10;0.10;;;15.50;88.20;;;;;;4996057;28;20034;-82
2023/10/26 15:56:45;;;;;;;0.10;0.10;;;15.60;88.30;;;;;;4980554;28;20125;-81
2023/10/26 15:59:10;;;;;;;0.10;0.10;;;15.50;88.40;;;;;;4998650;28;20038;-78
2023/10/26 16:01:36;;;;;;;0.10;0.10;;;15.50;88.20;;;;;;4998810;28;20105;-76
2023/10/26 16:04:02;;;;;;;0.10;0.10;;;15.50;88.20;;;;;;4991789;28;20026;-76
2023/10/26 16:06:27;;;;;;;0.10;0.10;;;15.50;88.30;;;;;;4996819;28;20034;-77
2023/10/26 16:08:53;;;;;;;0.10;0.10;;;15.50;88.40;;;;;;4996078;28;20097;-77
2023/10/26 16:11:19;;;;;;;0.10;0.10;;;15.40;88.40;;;;;;4982874;28;20072;-76
2023/10/26 16:13:45;;;;;;;0.10;0.10;;;15.40;88.40;;;;;;4995811;28;20510;-77
2023/10/26 16:16:12;;;;;;;0.10;0.10;;;15.40;88.40;;;;;;4995088;28;20033;-76
2023/10/26 16:18:38;;;;;;;0.10;0.10;;;15.40;88.50;;;;;;4972523;28;20038;-78
2023/10/26 16:21:04;;;;;;;0.10;0.10;;;15.40;88.30;;;;;;4986796;28;20510;-77
2023/10/26 16:23:30;;;;;;;0.10;0.10;;;15.30;88.50;;;;;;4993189;28;21056;-77
2023/10/26 16:25:55;;;;;;;0.10;0.10;;;15.30;88.50;;;;;;4986125;28;20035;-76
2023/10/26 16:28:21;;;;;;;0.10;0.10;;;15.30;88.50;;;;;;4980734;28;20118;-77
2023/10/26 16:30:48;;;;;;;0.10;0.10;;;15.30;88.70;;;;;;4975562;28;20046;-77
2023/10/26 16:33:13;;;;;;;0.10;0.10;;;15.30;88.70;;;;;;4978381;28;20081;-76
2023/10/26 16:35:40;;;;;;;0.10;0.10;;;15.30;88.70;;;;;;4978332;28;20027;-76
2023/10/26 16:38:07;;;;;;;0.10;0.10;;;15.30;88.60;;;;;;4979477;28;20031;-77
2023/10/26 16:40:33;;;;;;;0.20;0.20;;;15.30;88.70;;;;;;4976422;28;20083;-77
2023/10/26 16:42:59;;;;;;;0.10;0.10;;;15.30;88.70;;;;;;4978990;28;20033;-77
2023/10/26 16:45:25;;;;;;;0.10;0.10;;;15.30;88.70;;;;;;4978880;28;20045;-77
2023/10/26 16:47:51;;;;;;;0.10;0.10;;;15.30;88.80;;;;;;4978100;28;20919;-75
2023/10/26 16:50:18;;;;;;;0.22;0.10;;;15.20;88.90;;;;;;4974690;28;20035;-75
2023/10/26 16:52:44;;;;;;;0.10;0.10;;;15.20;89.00;;;;;;4976245;28;20045;-75
2023/10/26 16:55:10;;;;;;;0.10;0.10;;;15.20;89.10;;;;;;4974433;28;20038;-74
2023/10/26 16:57:36;;;;;;;0.10;0.10;;;15.20;89.30;;;;;;4979516;28;20031;-76
2023/10/26 17:00:03;;;;;;;0.10;0.10;;;15.20;89.20;;;;;;4961759;28;20032;-72
2023/10/26 17:02:29;;;;;;;0.10;0.10;;;15.20;89.20;;;;;;4957714;28;20033;-72
2023/10/26 17:04:56;;;;;;;0.10;0.10;;;15.20;89.10;;;;;;4971704;28;20494;-72
2023/10/26 17:07:22;;;;;;;0.10;0.10;;;15.20;89.10;;;;;;4973485;28;20034;-72
2023/10/26 17:09:48;;;;;;;0.10;0.10;;;15.10;89.00;;;;;;4976106;28;20605;-72
2023/10/26 17:12:14;;;;;;;0.10;0.10;;;15.00;88.90;;;;;;4974579;28;20120;-72
2023/10/26 17:14:40;;;;;;;0.10;0.10;;;15.10;89.00;;;;;;4992363;28;20023;-73
2023/10/26 17:17:05;;;;;;;0.10;0.10;;;15.10;89.00;;;;;;4979043;28;20413;-73